sensor_id;sensor_type;location;lat;lon;timestamp;P1;durP1;ratioP1;P2;durP2;ratioP2
68507;SDS011;55510;49.560;19.090;2022-11-13T15:34:47;77.05;;;34.80;;
68507;SDS011;55510;49.560;19.090;2022-11-13T15:37:48;72.25;;;32.58;;
68507;SDS011;55510;49.560;19.090;2022-11-13T15:40:49;62.20;;;30.97;;
68507;SDS011;55510;49.560;19.090;2022-11-13T15:43:50;60.30;;;27.43;;
68507;SDS011;55510;49.560;19.090;2022-11-13T15:46:53;58.17;;;28.55;;
68507;SDS011;55510;49.560;19.090;2022-11-13T15:49:54;60.73;;;30.60;;
68507;SDS011;55510;49.560;19.090;2022-11-13T15:52:55;64.82;;;29.85;;
68507;SDS011;55510;49.560;19.090;2022-11-13T15:55:57;62.67;;;31.65;;
68507;SDS011;55510;49.560;19.090;2022-11-13T15:59:02;74.65;;;39.20;;
68507;SDS011;55510;49.560;19.090;2022-11-13T16:02:02;102.03;;;48.47;;
68507;SDS011;55510;49.560;19.090;2022-11-13T16:05:06;97.25;;;47.88;;
68507;SDS011;55510;49.560;19.090;2022-11-13T16:08:11;96.25;;;47.38;;
68507;SDS011;55510;49.560;19.090;2022-11-13T16:11:17;79.53;;;42.35;;
68507;SDS011;55510;49.560;19.090;2022-11-13T16:14:19;84.10;;;45.43;;
68507;SDS011;55510;49.560;19.090;2022-11-13T16:17:21;79.67;;;42.60;;
68507;SDS011;55510;49.560;19.090;2022-11-13T16:20:22;85.72;;;46.22;;
68507;SDS011;55510;49.560;19.090;2022-11-13T16:23:23;91.90;;;48.35;;
68507;SDS011;55510;49.560;19.090;2022-11-13T16:26:24;96.80;;;52.77;;
68507;SDS011;55510;49.560;19.090;2022-11-13T16:29:25;100.05;;;50.10;;
68507;SDS011;55510;49.560;19.090;2022-11-13T16:32:27;100.55;;;54.47;;
68507;SDS011;55510;49.560;19.090;2022-11-13T16:35:28;94.07;;;49.10;;
68507;SDS011;55510;49.560;19.090;2022-11-13T16:38:29;103.72;;;52.55;;
68507;SDS011;55510;49.560;19.090;2022-11-13T16:41:30;99.87;;;52.83;;
68507;SDS011;55510;49.560;19.090;2022-11-13T16:44:31;111.30;;;57.92;;
68507;SDS011;55510;49.560;19.090;2022-11-13T16:47:32;125.70;;;61.90;;
68507;SDS011;55510;49.560;19.090;2022-11-13T16:50:33;138.27;;;65.90;;
68507;SDS011;55510;49.560;19.090;2022-11-13T16:53:36;124.35;;;59.47;;
68507;SDS011;55510;49.560;19.090;2022-11-13T16:56:36;123.23;;;56.93;;
68507;SDS011;55510;49.560;19.090;2022-11-13T16:59:37;131.05;;;60.22;;
68507;SDS011;55510;49.560;19.090;2022-11-13T17:02:38;174.80;;;67.13;;
68507;SDS011;55510;49.560;19.090;2022-11-13T17:05:38;136.73;;;59.30;;
68507;SDS011;55510;49.560;19.090;2022-11-13T17:08:39;110.97;;;50.70;;
68507;SDS011;55510;49.560;19.090;2022-11-13T17:11:40;104.30;;;46.83;;
68507;SDS011;55510;49.560;19.090;2022-11-13T17:14:41;118.87;;;52.03;;
68507;SDS011;55510;49.560;19.090;2022-11-13T17:17:41;126.90;;;50.72;;
68507;SDS011;55510;49.560;19.090;2022-11-13T17:20:42;118.33;;;53.43;;
68507;SDS011;55510;49.560;19.090;2022-11-13T17:23:43;126.15;;;52.35;;
68507;SDS011;55510;49.560;19.090;2022-11-13T17:26:46;129.17;;;53.20;;
68507;SDS011;55510;49.560;19.090;2022-11-13T17:29:47;117.23;;;49.87;;
68507;SDS011;55510;49.560;19.090;2022-11-13T17:32:47;132.53;;;55.43;;
68507;SDS011;55510;49.560;19.090;2022-11-13T17:35:54;126.05;;;54.60;;
68507;SDS011;55510;49.560;19.090;2022-11-13T17:38:56;117.43;;;54.17;;
68507;SDS011;55510;49.560;19.090;2022-11-13T17:41:57;110.73;;;50.10;;
68507;SDS011;55510;49.560;19.090;2022-11-13T17:44:58;105.82;;;49.10;;
68507;SDS011;55510;49.560;19.090;2022-11-13T17:47:58;152.13;;;60.03;;
68507;SDS011;55510;49.560;19.090;2022-11-13T17:51:00;175.47;;;66.97;;
68507;SDS011;55510;49.560;19.090;2022-11-13T17:54:04;198.90;;;71.60;;
68507;SDS011;55510;49.560;19.090;2022-11-13T17:57:05;151.25;;;63.83;;
68507;SDS011;55510;49.560;19.090;2022-11-13T18:00:09;173.10;;;77.15;;
68507;SDS011;55510;49.560;19.090;2022-11-13T18:03:10;152.55;;;73.38;;
68507;SDS011;55510;49.560;19.090;2022-11-13T18:06:11;155.17;;;73.13;;
68507;SDS011;55510;49.560;19.090;2022-11-13T18:09:14;188.45;;;86.15;;
68507;SDS011;55510;49.560;19.090;2022-11-13T18:12:14;255.90;;;108.67;;
68507;SDS011;55510;49.560;19.090;2022-11-13T18:15:15;236.00;;;96.15;;
68507;SDS011;55510;49.560;19.090;2022-11-13T18:18:17;202.37;;;86.27;;
68507;SDS011;55510;49.560;19.090;2022-11-13T18:21:19;172.10;;;74.22;;
68507;SDS011;55510;49.560;19.090;2022-11-13T18:24:22;158.02;;;67.55;;
68507;SDS011;55510;49.560;19.090;2022-11-13T18:27:23;140.67;;;63.87;;
68507;SDS011;55510;49.560;19.090;2022-11-13T18:30:24;130.50;;;62.00;;
68507;SDS011;55510;49.560;19.090;2022-11-13T18:33:25;140.65;;;63.08;;
68507;SDS011;55510;49.560;19.090;2022-11-13T18:36:25;131.20;;;59.70;;
68507;SDS011;55510;49.560;19.090;2022-11-13T18:39:26;147.35;;;68.95;;
68507;SDS011;55510;49.560;19.090;2022-11-13T18:42:27;159.90;;;72.53;;
68507;SDS011;55510;49.560;19.090;2022-11-13T18:45:28;151.60;;;68.22;;
68507;SDS011;55510;49.560;19.090;2022-11-13T18:48:36;152.03;;;69.20;;
68507;SDS011;55510;49.560;19.090;2022-11-13T18:51:38;153.38;;;72.95;;
68507;SDS011;55510;49.560;19.090;2022-11-13T18:54:40;153.73;;;74.80;;
68507;SDS011;55510;49.560;19.090;2022-11-13T18:57:41;164.70;;;80.17;;
68507;SDS011;55510;49.560;19.090;2022-11-13T19:00:41;172.20;;;78.83;;
68507;SDS011;55510;49.560;19.090;2022-11-13T19:03:42;159.82;;;76.30;;
68507;SDS011;55510;49.560;19.090;2022-11-13T19:06:43;179.73;;;85.75;;
68507;SDS011;55510;49.560;19.090;2022-11-13T19:09:44;166.57;;;75.97;;
68507;SDS011;55510;49.560;19.090;2022-11-13T19:12:49;141.87;;;70.77;;
68507;SDS011;55510;49.560;19.090;2022-11-13T19:15:50;123.80;;;60.20;;
68507;SDS011;55510;49.560;19.090;2022-11-13T19:18:53;107.35;;;52.53;;
68507;SDS011;55510;49.560;19.090;2022-11-13T19:21:56;105.93;;;49.17;;
68507;SDS011;55510;49.560;19.090;2022-11-13T19:24:57;107.27;;;49.33;;
68507;SDS011;55510;49.560;19.090;2022-11-13T19:27:58;106.90;;;48.63;;
68507;SDS011;55510;49.560;19.090;2022-11-13T19:30:58;110.10;;;48.57;;
68507;SDS011;55510;49.560;19.090;2022-11-13T19:34:00;118.70;;;53.77;;
68507;SDS011;55510;49.560;19.090;2022-11-13T19:37:02;125.90;;;55.53;;
68507;SDS011;55510;49.560;19.090;2022-11-13T19:40:05;136.30;;;58.28;;
68507;SDS011;55510;49.560;19.090;2022-11-13T19:43:06;133.80;;;61.05;;
68507;SDS011;55510;49.560;19.090;2022-11-13T19:46:11;139.00;;;62.57;;
68507;SDS011;55510;49.560;19.090;2022-11-13T19:49:13;145.02;;;66.75;;
68507;SDS011;55510;49.560;19.090;2022-11-13T19:52:13;147.23;;;72.65;;
68507;SDS011;55510;49.560;19.090;2022-11-13T19:55:14;135.93;;;62.33;;
68507;SDS011;55510;49.560;19.090;2022-11-13T19:58:15;116.70;;;55.17;;
68507;SDS011;55510;49.560;19.090;2022-11-13T20:01:16;113.18;;;53.47;;
68507;SDS011;55510;49.560;19.090;2022-11-13T20:04:22;110.70;;;52.43;;
68507;SDS011;55510;49.560;19.090;2022-11-13T20:07:22;110.53;;;51.03;;
68507;SDS011;55510;49.560;19.090;2022-11-13T20:10:24;105.68;;;50.58;;
68507;SDS011;55510;49.560;19.090;2022-11-13T20:13:25;110.83;;;50.37;;
68507;SDS011;55510;49.560;19.090;2022-11-13T20:16:26;153.30;;;65.03;;
68507;SDS011;55510;49.560;19.090;2022-11-13T20:19:26;134.02;;;59.47;;
68507;SDS011;55510;49.560;19.090;2022-11-13T20:22:28;136.25;;;56.90;;
68507;SDS011;55510;49.560;19.090;2022-11-13T20:25:28;132.03;;;60.43;;
68507;SDS011;55510;49.560;19.090;2022-11-13T20:28:29;138.17;;;63.13;;
68507;SDS011;55510;49.560;19.090;2022-11-13T20:31:30;128.60;;;60.53;;
68507;SDS011;55510;49.560;19.090;2022-11-13T20:34:31;147.68;;;67.68;;
68507;SDS011;55510;49.560;19.090;2022-11-13T20:37:32;113.10;;;49.80;;
68507;SDS011;55510;49.560;19.090;2022-11-13T20:40:33;105.72;;;48.15;;
68507;SDS011;55510;49.560;19.090;2022-11-13T20:43:33;103.17;;;47.93;;
68507;SDS011;55510;49.560;19.090;2022-11-13T20:46:34;93.10;;;43.15;;
68507;SDS011;55510;49.560;19.090;2022-11-13T20:49:35;109.37;;;49.17;;
68507;SDS011;55510;49.560;19.090;2022-11-13T20:52:37;106.93;;;46.90;;
68507;SDS011;55510;49.560;19.090;2022-11-13T20:55:37;91.35;;;41.47;;
68507;SDS011;55510;49.560;19.090;2022-11-13T20:58:38;103.93;;;49.20;;
68507;SDS011;55510;49.560;19.090;2022-11-13T21:01:39;115.00;;;52.92;;
68507;SDS011;55510;49.560;19.090;2022-11-13T21:04:40;105.07;;;45.22;;
68507;SDS011;55510;49.560;19.090;2022-11-13T21:07:41;94.65;;;43.63;;
68507;SDS011;55510;49.560;19.090;2022-11-13T21:10:42;90.45;;;43.17;;
68507;SDS011;55510;49.560;19.090;2022-11-13T21:13:42;98.00;;;45.08;;
68507;SDS011;55510;49.560;19.090;2022-11-13T21:16:45;103.93;;;48.80;;
68507;SDS011;55510;49.560;19.090;2022-11-13T21:19:46;100.37;;;50.20;;
68507;SDS011;55510;49.560;19.090;2022-11-13T21:22:47;106.18;;;50.70;;
68507;SDS011;55510;49.560;19.090;2022-11-13T21:25:56;105.40;;;47.35;;
68507;SDS011;55510;49.560;19.090;2022-11-13T21:28:58;90.85;;;43.25;;
68507;SDS011;55510;49.560;19.090;2022-11-13T21:31:59;116.27;;;47.87;;
68507;SDS011;55510;49.560;19.090;2022-11-13T21:35:00;90.60;;;40.47;;
